sensor_id;sensor_type;location;lat;lon;timestamp;P1;P2;P0
45990;PMS5003;31721;41.740;-88.000;2024-02-21T00:01:14;20;19;
45990;PMS5003;31721;41.740;-88.000;2024-02-21T00:03:42;29;23;
45990;PMS5003;31721;41.740;-88.000;2024-02-21T00:06:10;29;23;
45990;PMS5003;31721;41.740;-88.000;2024-02-21T00:08:39;22;19;
45990;PMS5003;31721;41.740;-88.000;2024-02-21T00:11:07;29;23;
45990;PMS5003;31721;41.740;-88.000;2024-02-21T00:13:35;28;23;
45990;PMS5003;31721;41.740;-88.000;2024-02-21T00:16:03;28;23;
45990;PMS5003;31721;41.740;-88.000;2024-02-21T00:18:31;28;23;
45990;PMS5003;31721;41.740;-88.000;2024-02-21T00:20:58;23;22;
45990;PMS5003;31721;41.740;-88.000;2024-02-21T00:23:26;27;20;
45990;PMS5003;31721;41.740;-88.000;2024-02-21T00:25:54;25;22;
45990;PMS5003;31721;41.740;-88.000;2024-02-21T00:28:22;23;20;
45990;PMS5003;31721;41.740;-88.000;2024-02-21T00:30:50;29;24;
45990;PMS5003;31721;41.740;-88.000;2024-02-21T00:33:18;28;26;
45990;PMS5003;31721;41.740;-88.000;2024-02-21T00:35:46;24;18;
45990;PMS5003;31721;41.740;-88.000;2024-02-21T00:38:14;33;30;
45990;PMS5003;31721;41.740;-88.000;2024-02-21T00:40:42;27;21;
45990;PMS5003;31721;41.740;-88.000;2024-02-21T00:43:10;27;17;
45990;PMS5003;31721;41.740;-88.000;2024-02-21T00:45:37;27;20;
45990;PMS5003;31721;41.740;-88.000;2024-02-21T00:48:05;26;23;
45990;PMS5003;31721;41.740;-88.000;2024-02-21T00:50:33;22;20;
45990;PMS5003;31721;41.740;-88.000;2024-02-21T00:53:01;20;18;
45990;PMS5003;31721;41.740;-88.000;2024-02-21T00:55:29;35;28;
45990;PMS5003;31721;41.740;-88.000;2024-02-21T00:57:57;18;18;
45990;PMS5003;31721;41.740;-88.000;2024-02-21T01:00:25;24;20;
45990;PMS5003;31721;41.740;-88.000;2024-02-21T01:02:53;21;17;
45990;PMS5003;31721;41.740;-88.000;2024-02-21T01:05:21;17;17;
45990;PMS5003;31721;41.740;-88.000;2024-02-21T01:07:49;27;22;
45990;PMS5003;31721;41.740;-88.000;2024-02-21T01:10:17;33;26;
45990;PMS5003;31721;41.740;-88.000;2024-02-21T01:12:44;28;27;
45990;PMS5003;31721;41.740;-88.000;2024-02-21T01:15:12;28;26;
45990;PMS5003;31721;41.740;-88.000;2024-02-21T01:17:40;28;23;
45990;PMS5003;31721;41.740;-88.000;2024-02-21T01:20:08;34;27;
45990;PMS5003;31721;41.740;-88.000;2024-02-21T01:22:36;20;17;
45990;PMS5003;31721;41.740;-88.000;2024-02-21T01:25:04;19;14;
45990;PMS5003;31721;41.740;-88.000;2024-02-21T01:27:32;20;20;
45990;PMS5003;31721;41.740;-88.000;2024-02-21T01:29:59;21;17;
45990;PMS5003;31721;41.740;-88.000;2024-02-21T01:32:27;20;19;
45990;PMS5003;31721;41.740;-88.000;2024-02-21T01:34:55;21;20;
45990;PMS5003;31721;41.740;-88.000;2024-02-21T01:37:23;21;17;
45990;PMS5003;31721;41.740;-88.000;2024-02-21T01:39:50;35;29;
45990;PMS5003;31721;41.740;-88.000;2024-02-21T01:42:18;21;16;
45990;PMS5003;31721;41.740;-88.000;2024-02-21T01:44:46;28;27;
45990;PMS5003;31721;41.740;-88.000;2024-02-21T01:47:14;31;22;
45990;PMS5003;31721;41.740;-88.000;2024-02-21T01:49:42;22;19;
45990;PMS5003;31721;41.740;-88.000;2024-02-21T01:52:11;24;21;
45990;PMS5003;31721;41.740;-88.000;2024-02-21T01:54:42;30;29;
45990;PMS5003;31721;41.740;-88.000;2024-02-21T01:57:13;19;19;
45990;PMS5003;31721;41.740;-88.000;2024-02-21T01:59:41;26;24;
45990;PMS5003;31721;41.740;-88.000;2024-02-21T02:02:10;25;24;
45990;PMS5003;31721;41.740;-88.000;2024-02-21T02:04:38;19;18;
45990;PMS5003;31721;41.740;-88.000;2024-02-21T02:07:07;27;24;
45990;PMS5003;31721;41.740;-88.000;2024-02-21T02:09:35;33;26;
45990;PMS5003;31721;41.740;-88.000;2024-02-21T02:12:03;26;20;
45990;PMS5003;31721;41.740;-88.000;2024-02-21T02:14:32;21;19;
45990;PMS5003;31721;41.740;-88.000;2024-02-21T02:17:00;21;19;
45990;PMS5003;31721;41.740;-88.000;2024-02-21T02:19:28;20;18;
45990;PMS5003;31721;41.740;-88.000;2024-02-21T02:21:58;29;21;
45990;PMS5003;31721;41.740;-88.000;2024-02-21T02:24:37;21;19;
45990;PMS5003;31721;41.740;-88.000;2024-02-21T02:27:04;20;16;
45990;PMS5003;31721;41.740;-88.000;2024-02-21T02:29:32;19;18;
45990;PMS5003;31721;41.740;-88.000;2024-02-21T02:32:00;24;23;
45990;PMS5003;31721;41.740;-88.000;2024-02-21T02:34:29;27;25;
45990;PMS5003;31721;41.740;-88.000;2024-02-21T02:36:56;25;21;
45990;PMS5003;31721;41.740;-88.000;2024-02-21T02:39:24;22;19;
45990;PMS5003;31721;41.740;-88.000;2024-02-21T02:41:52;25;24;
45990;PMS5003;31721;41.740;-88.000;2024-02-21T02:44:21;19;18;
45990;PMS5003;31721;41.740;-88.000;2024-02-21T02:46:49;24;20;
45990;PMS5003;31721;41.740;-88.000;2024-02-21T02:49:16;18;17;
45990;PMS5003;31721;41.740;-88.000;2024-02-21T02:51:44;25;23;
45990;PMS5003;31721;41.740;-88.000;2024-02-21T02:54:12;22;14;
45990;PMS5003;31721;41.740;-88.000;2024-02-21T02:56:40;23;22;
45990;PMS5003;31721;41.740;-88.000;2024-02-21T02:59:08;23;20;
45990;PMS5003;31721;41.740;-88.000;2024-02-21T03:01:35;20;20;
45990;PMS5003;31721;41.740;-88.000;2024-02-21T03:04:04;23;20;
45990;PMS5003;31721;41.740;-88.000;2024-02-21T03:06:31;18;18;
45990;PMS5003;31721;41.740;-88.000;2024-02-21T03:08:59;20;17;
45990;PMS5003;31721;41.740;-88.000;2024-02-21T03:11:27;20;15;
45990;PMS5003;31721;41.740;-88.000;2024-02-21T03:13:55;22;19;
45990;PMS5003;31721;41.740;-88.000;2024-02-21T03:16:23;23;20;
45990;PMS5003;31721;41.740;-88.000;2024-02-21T03:18:51;15;14;
45990;PMS5003;31721;41.740;-88.000;2024-02-21T03:21:20;18;15;
45990;PMS5003;31721;41.740;-88.000;2024-02-21T03:23:48;22;14;
45990;PMS5003;31721;41.740;-88.000;2024-02-21T03:26:16;18;9;
45990;PMS5003;31721;41.740;-88.000;2024-02-21T03:28:44;20;17;
45990;PMS5003;31721;41.740;-88.000;2024-02-21T03:31:12;28;24;
45990;PMS5003;31721;41.740;-88.000;2024-02-21T03:33:42;16;16;
45990;PMS5003;31721;41.740;-88.000;2024-02-21T03:36:13;22;19;
45990;PMS5003;31721;41.740;-88.000;2024-02-21T03:38:41;18;17;
45990;PMS5003;31721;41.740;-88.000;2024-02-21T03:41:09;16;13;
45990;PMS5003;31721;41.740;-88.000;2024-02-21T03:43:37;16;12;
45990;PMS5003;31721;41.740;-88.000;2024-02-21T03:46:05;17;13;
45990;PMS5003;31721;41.740;-88.000;2024-02-21T03:48:33;13;13;
45990;PMS5003;31721;41.740;-88.000;2024-02-21T03:51:01;17;12;
45990;PMS5003;31721;41.740;-88.000;2024-02-21T03:53:30;19;13;
45990;PMS5003;31721;41.740;-88.000;2024-02-21T03:56:00;14;12;
45990;PMS5003;31721;41.740;-88.000;2024-02-21T03:58:28;18;13;
45990;PMS5003;31721;41.740;-88.000;2024-02-21T04:00:56;19;11;
45990;PMS5003;31721;41.740;-88.000;2024-02-21T04:03:26;16;11;
45990;PMS5003;31721;41.740;-88.000;2024-02-21T04:05:55;13;12;
45990;PMS5003;31721;41.740;-88.000;2024-02-21T04:08:22;19;14;
45990;PMS5003;31721;41.740;-88.000;2024-02-21T04:10:50;17;13;
45990;PMS5003;31721;41.740;-88.000;2024-02-21T04:13:18;19;17;
45990;PMS5003;31721;41.740;-88.000;2024-02-21T04:15:45;13;9;
45990;PMS5003;31721;41.740;-88.000;2024-02-21T04:18:13;16;13;
45990;PMS5003;31721;41.740;-88.000;2024-02-21T04:20:41;18;16;
45990;PMS5003;31721;41.740;-88.000;2024-02-21T04:23:09;16;13;
45990;PMS5003;31721;41.740;-88.000;2024-02-21T04:25:37;13;13;
45990;PMS5003;31721;41.740;-88.000;2024-02-21T04:28:06;16;12;
45990;PMS5003;31721;41.740;-88.000;2024-02-21T04:30:34;15;15;
45990;PMS5003;31721;41.740;-88.000;2024-02-21T04:33:01;22;21;
45990;PMS5003;31721;41.740;-88.000;2024-02-21T04:35:30;12;11;
45990;PMS5003;31721;41.740;-88.000;2024-02-21T04:37:58;17;16;
45990;PMS5003;31721;41.740;-88.000;2024-02-21T04:40:26;12;9;
45990;PMS5003;31721;41.740;-88.000;2024-02-21T04:42:54;25;18;
45990;PMS5003;31721;41.740;-88.000;2024-02-21T04:45:21;13;13;
45990;PMS5003;31721;41.740;-88.000;2024-02-21T04:47:49;12;12;
45990;PMS5003;31721;41.740;-88.000;2024-02-21T04:50:16;18;14;
45990;PMS5003;31721;41.740;-88.000;2024-02-21T04:52:44;18;14;
45990;PMS5003;31721;41.740;-88.000;2024-02-21T04:55:12;18;17;
45990;PMS5003;31721;41.740;-88.000;2024-02-21T04:57:40;16;12;
45990;PMS5003;31721;41.740;-88.000;2024-02-21T05:00:09;21;13;
45990;PMS5003;31721;41.740;-88.000;2024-02-21T05:02:37;14;12;
45990;PMS5003;31721;41.740;-88.000;2024-02-21T05:05:05;18;18;
45990;PMS5003;31721;41.740;-88.000;2024-02-21T05:07:34;19;18;
45990;PMS5003;31721;41.740;-88.000;2024-02-21T05:10:03;21;14;
45990;PMS5003;31721;41.740;-88.000;2024-02-21T05:12:31;19;14;
45990;PMS5003;31721;41.740;-88.000;2024-02-21T05:14:59;15;15;
45990;PMS5003;31721;41.740;-88.000;2024-02-21T05:17:26;16;14;
45990;PMS5003;31721;41.740;-88.000;2024-02-21T05:19:54;13;11;
45990;PMS5003;31721;41.740;-88.000;2024-02-21T05:22:21;18;17;
45990;PMS5003;31721;41.740;-88.000;2024-02-21T05:24:49;17;17;
45990;PMS5003;31721;41.740;-88.000;2024-02-21T05:27:16;14;13;
45990;PMS5003;31721;41.740;-88.000;2024-02-21T05:29:44;18;16;
45990;PMS5003;31721;41.740;-88.000;2024-02-21T05:32:12;26;22;
45990;PMS5003;31721;41.740;-88.000;2024-02-21T05:34:40;21;19;
45990;PMS5003;31721;41.740;-88.000;2024-02-21T05:37:08;16;12;
45990;PMS5003;31721;41.740;-88.000;2024-02-21T05:39:36;16;13;
45990;PMS5003;31721;41.740;-88.000;2024-02-21T05:42:04;14;13;
45990;PMS5003;31721;41.740;-88.000;2024-02-21T05:44:32;12;12;
45990;PMS5003;31721;41.740;-88.000;2024-02-21T05:47:00;18;17;
45990;PMS5003;31721;41.740;-88.000;2024-02-21T05:49:27;13;13;
45990;PMS5003;31721;41.740;-88.000;2024-02-21T05:51:55;19;17;
45990;PMS5003;31721;41.740;-88.000;2024-02-21T05:54:23;11;11;
45990;PMS5003;31721;41.740;-88.000;2024-02-21T05:56:50;21;18;
45990;PMS5003;31721;41.740;-88.000;2024-02-21T05:59:19;14;12;
45990;PMS5003;31721;41.740;-88.000;2024-02-21T06:01:54;16;14;
45990;PMS5003;31721;41.740;-88.000;2024-02-21T06:04:23;19;18;
45990;PMS5003;31721;41.740;-88.000;2024-02-21T06:06:51;11;11;
45990;PMS5003;31721;41.740;-88.000;2024-02-21T06:09:19;16;12;
45990;PMS5003;31721;41.740;-88.000;2024-02-21T06:11:47;14;13;
45990;PMS5003;31721;41.740;-88.000;2024-02-21T06:14:15;12;12;
45990;PMS5003;31721;41.740;-88.000;2024-02-21T06:16:43;17;12;
45990;PMS5003;31721;41.740;-88.000;2024-02-21T06:19:11;13;11;
45990;PMS5003;31721;41.740;-88.000;2024-02-21T06:21:39;18;17;
45990;PMS5003;31721;41.740;-88.000;2024-02-21T06:24:07;9;9;
45990;PMS5003;31721;41.740;-88.000;2024-02-21T06:26:34;13;12;
45990;PMS5003;31721;41.740;-88.000;2024-02-21T06:29:02;11;11;
45990;PMS5003;31721;41.740;-88.000;2024-02-21T06:31:30;14;11;
45990;PMS5003;31721;41.740;-88.000;2024-02-21T06:33:57;9;9;
45990;PMS5003;31721;41.740;-88.000;2024-02-21T06:36:26;18;13;
45990;PMS5003;31721;41.740;-88.000;2024-02-21T06:38:53;17;13;
45990;PMS5003;31721;41.740;-88.000;2024-02-21T06:41:22;12;9;
45990;PMS5003;31721;41.740;-88.000;2024-02-21T06:43:49;18;13;
45990;PMS5003;31721;41.740;-88.000;2024-02-21T06:46:25;13;13;
45990;PMS5003;31721;41.740;-88.000;2024-02-21T06:48:54;11;9;
45990;PMS5003;31721;41.740;-88.000;2024-02-21T06:51:22;8;7;
45990;PMS5003;31721;41.740;-88.000;2024-02-21T06:53:49;14;12;
45990;PMS5003;31721;41.740;-88.000;2024-02-21T06:56:17;13;12;
45990;PMS5003;31721;41.740;-88.000;2024-02-21T06:58:45;12;9;
45990;PMS5003;31721;41.740;-88.000;2024-02-21T07:01:12;17;12;
45990;PMS5003;31721;41.740;-88.000;2024-02-21T07:03:40;19;15;
45990;PMS5003;31721;41.740;-88.000;2024-02-21T07:06:08;14;8;
45990;PMS5003;31721;41.740;-88.000;2024-02-21T07:08:36;11;8;
45990;PMS5003;31721;41.740;-88.000;2024-02-21T07:11:04;16;12;
45990;PMS5003;31721;41.740;-88.000;2024-02-21T07:13:32;12;11;
45990;PMS5003;31721;41.740;-88.000;2024-02-21T07:15:59;20;17;
45990;PMS5003;31721;41.740;-88.000;2024-02-21T07:18:27;11;8;
45990;PMS5003;31721;41.740;-88.000;2024-02-21T07:20:55;11;11;
45990;PMS5003;31721;41.740;-88.000;2024-02-21T07:23:22;13;12;
45990;PMS5003;31721;41.740;-88.000;2024-02-21T07:25:50;13;11;
45990;PMS5003;31721;41.740;-88.000;2024-02-21T07:28:19;12;12;
45990;PMS5003;31721;41.740;-88.000;2024-02-21T07:30:46;7;7;
45990;PMS5003;31721;41.740;-88.000;2024-02-21T07:33:14;12;12;
45990;PMS5003;31721;41.740;-88.000;2024-02-21T07:35:42;13;9;
45990;PMS5003;31721;41.740;-88.000;2024-02-21T07:38:09;11;9;
45990;PMS5003;31721;41.740;-88.000;2024-02-21T07:40:36;13;11;
45990;PMS5003;31721;41.740;-88.000;2024-02-21T07:43:05;12;12;
45990;PMS5003;31721;41.740;-88.000;2024-02-21T07:45:33;13;12;
45990;PMS5003;31721;41.740;-88.000;2024-02-21T07:48:00;14;13;
45990;PMS5003;31721;41.740;-88.000;2024-02-21T07:50:29;13;12;
45990;PMS5003;31721;41.740;-88.000;2024-02-21T07:52:57;13;11;
45990;PMS5003;31721;41.740;-88.000;2024-02-21T07:55:25;12;9;
45990;PMS5003;31721;41.740;-88.000;2024-02-21T07:57:52;11;11;
45990;PMS5003;31721;41.740;-88.000;2024-02-21T08:00:20;9;9;
45990;PMS5003;31721;41.740;-88.000;2024-02-21T08:02:48;14;11;
45990;PMS5003;31721;41.740;-88.000;2024-02-21T08:05:17;9;9;
45990;PMS5003;31721;41.740;-88.000;2024-02-21T08:07:44;11;11;
45990;PMS5003;31721;41.740;-88.000;2024-02-21T08:10:12;25;17;
45990;PMS5003;31721;41.740;-88.000;2024-02-21T08:12:41;9;8;
45990;PMS5003;31721;41.740;-88.000;2024-02-21T08:15:09;16;9;
45990;PMS5003;31721;41.740;-88.000;2024-02-21T08:17:36;13;9;
45990;PMS5003;31721;41.740;-88.000;2024-02-21T08:20:04;12;9;
45990;PMS5003;31721;41.740;-88.000;2024-02-21T08:22:33;11;9;
45990;PMS5003;31721;41.740;-88.000;2024-02-21T08:25:06;19;16;
45990;PMS5003;31721;41.740;-88.000;2024-02-21T08:27:34;13;9;
45990;PMS5003;31721;41.740;-88.000;2024-02-21T08:30:04;13;12;
45990;PMS5003;31721;41.740;-88.000;2024-02-21T08:32:33;6;6;
45990;PMS5003;31721;41.740;-88.000;2024-02-21T08:35:01;11;11;
45990;PMS5003;31721;41.740;-88.000;2024-02-21T08:37:29;9;9;
45990;PMS5003;31721;41.740;-88.000;2024-02-21T08:39:57;14;12;
45990;PMS5003;31721;41.740;-88.000;2024-02-21T08:42:25;9;9;
45990;PMS5003;31721;41.740;-88.000;2024-02-21T08:44:53;14;14;
45990;PMS5003;31721;41.740;-88.000;2024-02-21T08:47:20;14;12;
45990;PMS5003;31721;41.740;-88.000;2024-02-21T08:49:47;8;7;
45990;PMS5003;31721;41.740;-88.000;2024-02-21T08:52:15;16;13;
45990;PMS5003;31721;41.740;-88.000;2024-02-21T08:54:42;10;9;
45990;PMS5003;31721;41.740;-88.000;2024-02-21T08:57:10;16;15;
45990;PMS5003;31721;41.740;-88.000;2024-02-21T08:59:37;13;11;
45990;PMS5003;31721;41.740;-88.000;2024-02-21T09:02:06;14;12;
45990;PMS5003;31721;41.740;-88.000;2024-02-21T09:04:33;13;9;
45990;PMS5003;31721;41.740;-88.000;2024-02-21T09:07:01;13;13;
45990;PMS5003;31721;41.740;-88.000;2024-02-21T09:09:29;13;12;
45990;PMS5003;31721;41.740;-88.000;2024-02-21T09:11:56;14;13;
45990;PMS5003;31721;41.740;-88.000;2024-02-21T09:14:24;14;11;
45990;PMS5003;31721;41.740;-88.000;2024-02-21T09:16:51;13;12;
45990;PMS5003;31721;41.740;-88.000;2024-02-21T09:19:19;16;12;
45990;PMS5003;31721;41.740;-88.000;2024-02-21T09:21:46;13;12;
45990;PMS5003;31721;41.740;-88.000;2024-02-21T09:24:14;14;12;
45990;PMS5003;31721;41.740;-88.000;2024-02-21T09:26:41;13;12;
45990;PMS5003;31721;41.740;-88.000;2024-02-21T09:29:09;18;17;
45990;PMS5003;31721;41.740;-88.000;2024-02-21T09:31:37;13;12;
45990;PMS5003;31721;41.740;-88.000;2024-02-21T09:34:04;13;9;
45990;PMS5003;31721;41.740;-88.000;2024-02-21T09:36:32;14;12;
45990;PMS5003;31721;41.740;-88.000;2024-02-21T09:39:00;17;17;
45990;PMS5003;31721;41.740;-88.000;2024-02-21T09:41:28;11;11;
45990;PMS5003;31721;41.740;-88.000;2024-02-21T09:43:56;17;16;
45990;PMS5003;31721;41.740;-88.000;2024-02-21T09:46:25;14;12;
45990;PMS5003;31721;41.740;-88.000;2024-02-21T09:49:04;14;11;
45990;PMS5003;31721;41.740;-88.000;2024-02-21T09:51:39;13;12;
45990;PMS5003;31721;41.740;-88.000;2024-02-21T09:54:08;9;8;
45990;PMS5003;31721;41.740;-88.000;2024-02-21T09:56:37;14;13;
45990;PMS5003;31721;41.740;-88.000;2024-02-21T09:59:05;11;9;
45990;PMS5003;31721;41.740;-88.000;2024-02-21T10:01:34;13;12;
45990;PMS5003;31721;41.740;-88.000;2024-02-21T10:04:01;16;12;
45990;PMS5003;31721;41.740;-88.000;2024-02-21T10:06:30;18;12;
45990;PMS5003;31721;41.740;-88.000;2024-02-21T10:08:58;16;15;
45990;PMS5003;31721;41.740;-88.000;2024-02-21T10:11:26;11;8;
45990;PMS5003;31721;41.740;-88.000;2024-02-21T10:14:02;16;12;
45990;PMS5003;31721;41.740;-88.000;2024-02-21T10:16:31;18;17;
45990;PMS5003;31721;41.740;-88.000;2024-02-21T10:18:59;11;11;
45990;PMS5003;31721;41.740;-88.000;2024-02-21T10:21:28;15;11;
45990;PMS5003;31721;41.740;-88.000;2024-02-21T10:23:55;14;14;
45990;PMS5003;31721;41.740;-88.000;2024-02-21T10:26:23;12;12;
45990;PMS5003;31721;41.740;-88.000;2024-02-21T10:28:51;19;16;
45990;PMS5003;31721;41.740;-88.000;2024-02-21T10:31:21;16;14;
45990;PMS5003;31721;41.740;-88.000;2024-02-21T10:33:54;13;13;
45990;PMS5003;31721;41.740;-88.000;2024-02-21T10:36:23;19;17;
45990;PMS5003;31721;41.740;-88.000;2024-02-21T10:38:51;10;10;
45990;PMS5003;31721;41.740;-88.000;2024-02-21T10:41:19;21;20;
45990;PMS5003;31721;41.740;-88.000;2024-02-21T10:43:49;15;12;
45990;PMS5003;31721;41.740;-88.000;2024-02-21T10:46:18;18;17;
45990;PMS5003;31721;41.740;-88.000;2024-02-21T10:48:51;17;12;
45990;PMS5003;31721;41.740;-88.000;2024-02-21T10:51:28;16;15;
45990;PMS5003;31721;41.740;-88.000;2024-02-21T10:54:02;15;13;
45990;PMS5003;31721;41.740;-88.000;2024-02-21T10:56:40;18;18;
45990;PMS5003;31721;41.740;-88.000;2024-02-21T10:59:08;22;16;
45990;PMS5003;31721;41.740;-88.000;2024-02-21T11:01:36;20;16;
45990;PMS5003;31721;41.740;-88.000;2024-02-21T11:04:05;20;15;
45990;PMS5003;31721;41.740;-88.000;2024-02-21T11:06:35;20;17;
45990;PMS5003;31721;41.740;-88.000;2024-02-21T11:09:05;15;13;
45990;PMS5003;31721;41.740;-88.000;2024-02-21T11:11:34;26;20;
45990;PMS5003;31721;41.740;-88.000;2024-02-21T11:14:05;16;16;
45990;PMS5003;31721;41.740;-88.000;2024-02-21T11:16:35;15;15;
45990;PMS5003;31721;41.740;-88.000;2024-02-21T11:19:05;18;14;
45990;PMS5003;31721;41.740;-88.000;2024-02-21T11:21:34;18;16;
45990;PMS5003;31721;41.740;-88.000;2024-02-21T11:24:03;25;21;
45990;PMS5003;31721;41.740;-88.000;2024-02-21T11:26:31;15;12;
45990;PMS5003;31721;41.740;-88.000;2024-02-21T11:28:59;18;16;
45990;PMS5003;31721;41.740;-88.000;2024-02-21T11:31:38;14;13;
45990;PMS5003;31721;41.740;-88.000;2024-02-21T11:34:08;22;17;
45990;PMS5003;31721;41.740;-88.000;2024-02-21T11:36:39;21;16;
45990;PMS5003;31721;41.740;-88.000;2024-02-21T11:39:13;27;16;
45990;PMS5003;31721;41.740;-88.000;2024-02-21T11:41:46;18;13;
45990;PMS5003;31721;41.740;-88.000;2024-02-21T11:44:14;17;13;
45990;PMS5003;31721;41.740;-88.000;2024-02-21T11:46:42;21;15;
45990;PMS5003;31721;41.740;-88.000;2024-02-21T11:49:10;18;16;
45990;PMS5003;31721;41.740;-88.000;2024-02-21T11:51:38;26;20;
45990;PMS5003;31721;41.740;-88.000;2024-02-21T11:54:06;26;17;
45990;PMS5003;31721;41.740;-88.000;2024-02-21T11:56:35;18;17;
45990;PMS5003;31721;41.740;-88.000;2024-02-21T11:59:02;16;16;
45990;PMS5003;31721;41.740;-88.000;2024-02-21T12:01:30;25;22;
45990;PMS5003;31721;41.740;-88.000;2024-02-21T12:03:58;18;16;
45990;PMS5003;31721;41.740;-88.000;2024-02-21T12:06:27;17;16;
45990;PMS5003;31721;41.740;-88.000;2024-02-21T12:08:57;23;15;
45990;PMS5003;31721;41.740;-88.000;2024-02-21T12:11:25;15;12;
45990;PMS5003;31721;41.740;-88.000;2024-02-21T12:14:00;26;21;
45990;PMS5003;31721;41.740;-88.000;2024-02-21T12:16:28;25;22;
45990;PMS5003;31721;41.740;-88.000;2024-02-21T12:18:56;17;15;
45990;PMS5003;31721;41.740;-88.000;2024-02-21T12:21:25;20;20;
45990;PMS5003;31721;41.740;-88.000;2024-02-21T12:23:53;18;17;
45990;PMS5003;31721;41.740;-88.000;2024-02-21T12:26:20;27;22;
45990;PMS5003;31721;41.740;-88.000;2024-02-21T12:28:48;27;22;
45990;PMS5003;31721;41.740;-88.000;2024-02-21T12:31:16;25;21;
45990;PMS5003;31721;41.740;-88.000;2024-02-21T12:33:44;21;21;
45990;PMS5003;31721;41.740;-88.000;2024-02-21T12:36:11;17;15;
45990;PMS5003;31721;41.740;-88.000;2024-02-21T12:38:39;21;20;
45990;PMS5003;31721;41.740;-88.000;2024-02-21T12:41:07;31;26;
45990;PMS5003;31721;41.740;-88.000;2024-02-21T12:43:35;32;24;
45990;PMS5003;31721;41.740;-88.000;2024-02-21T12:46:03;15;15;
45990;PMS5003;31721;41.740;-88.000;2024-02-21T12:48:32;22;17;
45990;PMS5003;31721;41.740;-88.000;2024-02-21T12:50:59;26;23;
45990;PMS5003;31721;41.740;-88.000;2024-02-21T12:53:27;21;21;
45990;PMS5003;31721;41.740;-88.000;2024-02-21T12:55:55;30;25;
45990;PMS5003;31721;41.740;-88.000;2024-02-21T12:58:23;27;23;
45990;PMS5003;31721;41.740;-88.000;2024-02-21T13:00:51;24;20;
45990;PMS5003;31721;41.740;-88.000;2024-02-21T13:03:19;26;22;
45990;PMS5003;31721;41.740;-88.000;2024-02-21T13:05:46;21;17;
45990;PMS5003;31721;41.740;-88.000;2024-02-21T13:08:13;31;25;
45990;PMS5003;31721;41.740;-88.000;2024-02-21T13:10:41;25;23;
45990;PMS5003;31721;41.740;-88.000;2024-02-21T13:13:09;29;20;
45990;PMS5003;31721;41.740;-88.000;2024-02-21T13:15:36;20;18;
45990;PMS5003;31721;41.740;-88.000;2024-02-21T13:18:04;26;23;
45990;PMS5003;31721;41.740;-88.000;2024-02-21T13:20:32;28;23;
45990;PMS5003;31721;41.740;-88.000;2024-02-21T13:23:00;28;18;
45990;PMS5003;31721;41.740;-88.000;2024-02-21T13:25:28;28;27;
45990;PMS5003;31721;41.740;-88.000;2024-02-21T13:27:56;35;25;
45990;PMS5003;31721;41.740;-88.000;2024-02-21T13:30:24;27;23;
45990;PMS5003;31721;41.740;-88.000;2024-02-21T13:32:52;35;22;
45990;PMS5003;31721;41.740;-88.000;2024-02-21T13:35:20;26;25;
45990;PMS5003;31721;41.740;-88.000;2024-02-21T13:37:48;27;25;
45990;PMS5003;31721;41.740;-88.000;2024-02-21T13:40:16;21;21;
45990;PMS5003;31721;41.740;-88.000;2024-02-21T13:42:44;36;29;
45990;PMS5003;31721;41.740;-88.000;2024-02-21T13:45:12;33;28;
45990;PMS5003;31721;41.740;-88.000;2024-02-21T13:47:40;31;28;
45990;PMS5003;31721;41.740;-88.000;2024-02-21T13:50:09;31;23;
45990;PMS5003;31721;41.740;-88.000;2024-02-21T13:52:36;35;32;
45990;PMS5003;31721;41.740;-88.000;2024-02-21T13:55:05;27;25;
45990;PMS5003;31721;41.740;-88.000;2024-02-21T13:57:33;33;29;
45990;PMS5003;31721;41.740;-88.000;2024-02-21T14:00:01;30;25;
45990;PMS5003;31721;41.740;-88.000;2024-02-21T14:02:29;30;24;
45990;PMS5003;31721;41.740;-88.000;2024-02-21T14:04:58;24;23;
45990;PMS5003;31721;41.740;-88.000;2024-02-21T14:07:26;30;28;
45990;PMS5003;31721;41.740;-88.000;2024-02-21T14:09:54;39;31;
45990;PMS5003;31721;41.740;-88.000;2024-02-21T14:12:22;33;28;
45990;PMS5003;31721;41.740;-88.000;2024-02-21T14:14:50;31;28;
45990;PMS5003;31721;41.740;-88.000;2024-02-21T14:17:18;26;23;
45990;PMS5003;31721;41.740;-88.000;2024-02-21T14:19:46;30;24;
45990;PMS5003;31721;41.740;-88.000;2024-02-21T14:22:14;31;31;
45990;PMS5003;31721;41.740;-88.000;2024-02-21T14:24:42;30;25;
45990;PMS5003;31721;41.740;-88.000;2024-02-21T14:27:10;29;28;
45990;PMS5003;31721;41.740;-88.000;2024-02-21T14:29:38;36;30;
45990;PMS5003;31721;41.740;-88.000;2024-02-21T14:32:06;30;29;
45990;PMS5003;31721;41.740;-88.000;2024-02-21T14:34:35;32;28;
45990;PMS5003;31721;41.740;-88.000;2024-02-21T14:37:03;26;23;
45990;PMS5003;31721;41.740;-88.000;2024-02-21T14:39:31;35;30;
45990;PMS5003;31721;41.740;-88.000;2024-02-21T14:41:59;37;31;
45990;PMS5003;31721;41.740;-88.000;2024-02-21T14:44:27;31;30;
45990;PMS5003;31721;41.740;-88.000;2024-02-21T14:46:55;27;24;
45990;PMS5003;31721;41.740;-88.000;2024-02-21T14:49:22;31;26;
45990;PMS5003;31721;41.740;-88.000;2024-02-21T14:51:50;37;35;
45990;PMS5003;31721;41.740;-88.000;2024-02-21T14:54:18;26;25;
45990;PMS5003;31721;41.740;-88.000;2024-02-21T14:56:47;32;27;
45990;PMS5003;31721;41.740;-88.000;2024-02-21T14:59:15;30;24;
45990;PMS5003;31721;41.740;-88.000;2024-02-21T15:01:42;28;24;
45990;PMS5003;31721;41.740;-88.000;2024-02-21T15:04:10;32;32;
45990;PMS5003;31721;41.740;-88.000;2024-02-21T15:06:38;35;29;
45990;PMS5003;31721;41.740;-88.000;2024-02-21T15:09:06;40;33;
45990;PMS5003;31721;41.740;-88.000;2024-02-21T15:11:33;32;29;
45990;PMS5003;31721;41.740;-88.000;2024-02-21T15:14:01;33;28;
45990;PMS5003;31721;41.740;-88.000;2024-02-21T15:16:29;36;33;
45990;PMS5003;31721;41.740;-88.000;2024-02-21T15:18:57;28;27;
45990;PMS5003;31721;41.740;-88.000;2024-02-21T15:21:25;34;30;
45990;PMS5003;31721;41.740;-88.000;2024-02-21T15:23:54;38;31;
45990;PMS5003;31721;41.740;-88.000;2024-02-21T15:26:22;33;28;
45990;PMS5003;31721;41.740;-88.000;2024-02-21T15:28:50;36;29;
45990;PMS5003;31721;41.740;-88.000;2024-02-21T15:31:20;26;25;
45990;PMS5003;31721;41.740;-88.000;2024-02-21T15:33:48;40;33;
45990;PMS5003;31721;41.740;-88.000;2024-02-21T15:36:17;25;23;
45990;PMS5003;31721;41.740;-88.000;2024-02-21T15:38:48;35;31;
45990;PMS5003;31721;41.740;-88.000;2024-02-21T15:41:16;29;26;
45990;PMS5003;31721;41.740;-88.000;2024-02-21T15:43:44;30;26;
45990;PMS5003;31721;41.740;-88.000;2024-02-21T15:46:13;33;27;
45990;PMS5003;31721;41.740;-88.000;2024-02-21T15:48:41;35;30;
45990;PMS5003;31721;41.740;-88.000;2024-02-21T15:51:08;30;21;
45990;PMS5003;31721;41.740;-88.000;2024-02-21T15:53:36;32;31;